sensor_id;sensor_type;location;lat;lon;timestamp;temperature;humidity
37938;DHT22;23763;48.130;11.602;2024-02-21T00:00:54;6.20;99.90
37938;DHT22;23763;48.130;11.602;2024-02-21T00:03:20;6.40;99.90
37938;DHT22;23763;48.130;11.602;2024-02-21T00:05:45;6.30;99.90
37938;DHT22;23763;48.130;11.602;2024-02-21T00:08:11;6.40;99.90
37938;DHT22;23763;48.130;11.602;2024-02-21T00:10:37;6.40;99.90
37938;DHT22;23763;48.130;11.602;2024-02-21T00:13:02;6.30;99.90
37938;DHT22;23763;48.130;11.602;2024-02-21T00:15:28;6.30;99.90
37938;DHT22;23763;48.130;11.602;2024-02-21T00:17:54;6.50;99.90
37938;DHT22;23763;48.130;11.602;2024-02-21T00:20:20;6.30;99.90
37938;DHT22;23763;48.130;11.602;2024-02-21T00:22:46;6.30;99.90
37938;DHT22;23763;48.130;11.602;2024-02-21T00:25:11;6.30;99.90
37938;DHT22;23763;48.130;11.602;2024-02-21T00:27:38;6.30;99.90
37938;DHT22;23763;48.130;11.602;2024-02-21T00:30:05;6.50;99.90
37938;DHT22;23763;48.130;11.602;2024-02-21T00:32:31;6.30;99.90
37938;DHT22;23763;48.130;11.602;2024-02-21T00:34:57;6.30;99.90
37938;DHT22;23763;48.130;11.602;2024-02-21T00:37:23;6.30;99.90
37938;DHT22;23763;48.130;11.602;2024-02-21T00:39:49;6.20;99.90
37938;DHT22;23763;48.130;11.602;2024-02-21T00:42:14;6.30;99.90
37938;DHT22;23763;48.130;11.602;2024-02-21T00:44:40;6.10;99.90
37938;DHT22;23763;48.130;11.602;2024-02-21T00:47:05;6.20;99.90
37938;DHT22;23763;48.130;11.602;2024-02-21T00:49:31;6.10;99.90
37938;DHT22;23763;48.130;11.602;2024-02-21T00:51:57;6.20;99.90
37938;DHT22;23763;48.130;11.602;2024-02-21T00:54:22;6.20;99.90
37938;DHT22;23763;48.130;11.602;2024-02-21T00:56:48;6.10;99.90
37938;DHT22;23763;48.130;11.602;2024-02-21T00:59:14;6.10;99.90
37938;DHT22;23763;48.130;11.602;2024-02-21T01:01:39;6.10;99.90
37938;DHT22;23763;48.130;11.602;2024-02-21T01:04:08;6.10;99.90
37938;DHT22;23763;48.130;11.602;2024-02-21T01:06:34;6.20;99.90
37938;DHT22;23763;48.130;11.602;2024-02-21T01:09:00;6.20;99.90
37938;DHT22;23763;48.130;11.602;2024-02-21T01:11:25;6.20;99.90
37938;DHT22;23763;48.130;11.602;2024-02-21T01:13:51;6.20;99.90
37938;DHT22;23763;48.130;11.602;2024-02-21T01:16:16;6.20;99.90
37938;DHT22;23763;48.130;11.602;2024-02-21T01:18:42;6.20;99.90
37938;DHT22;23763;48.130;11.602;2024-02-21T01:21:08;6.20;99.90
37938;DHT22;23763;48.130;11.602;2024-02-21T01:23:35;6.10;99.90
37938;DHT22;23763;48.130;11.602;2024-02-21T01:26:02;6.10;99.90
37938;DHT22;23763;48.130;11.602;2024-02-21T01:28:27;6.20;99.90
37938;DHT22;23763;48.130;11.602;2024-02-21T01:30:53;6.40;99.90
37938;DHT22;23763;48.130;11.602;2024-02-21T01:33:18;6.30;99.90
37938;DHT22;23763;48.130;11.602;2024-02-21T01:35:44;6.20;99.90
37938;DHT22;23763;48.130;11.602;2024-02-21T01:38:10;6.20;99.90
37938;DHT22;23763;48.130;11.602;2024-02-21T01:40:36;6.20;99.90
37938;DHT22;23763;48.130;11.602;2024-02-21T01:43:03;6.20;99.90
37938;DHT22;23763;48.130;11.602;2024-02-21T01:45:28;6.10;99.90
37938;DHT22;23763;48.130;11.602;2024-02-21T01:47:54;6.30;99.90
37938;DHT22;23763;48.130;11.602;2024-02-21T01:50:22;6.20;99.90
37938;DHT22;23763;48.130;11.602;2024-02-21T01:52:48;6.20;99.90
37938;DHT22;23763;48.130;11.602;2024-02-21T01:55:16;6.20;99.90
37938;DHT22;23763;48.130;11.602;2024-02-21T01:57:43;6.20;99.90
37938;DHT22;23763;48.130;11.602;2024-02-21T02:00:12;6.10;99.90
37938;DHT22;23763;48.130;11.602;2024-02-21T02:02:39;6.10;99.90
37938;DHT22;23763;48.130;11.602;2024-02-21T02:05:07;6.10;99.90
37938;DHT22;23763;48.130;11.602;2024-02-21T02:07:33;6.10;99.90
37938;DHT22;23763;48.130;11.602;2024-02-21T02:09:59;6.10;99.90
37938;DHT22;23763;48.130;11.602;2024-02-21T02:12:25;6.10;99.90
37938;DHT22;23763;48.130;11.602;2024-02-21T02:14:58;6.20;99.90
37938;DHT22;23763;48.130;11.602;2024-02-21T02:17:24;6.30;99.90
37938;DHT22;23763;48.130;11.602;2024-02-21T02:19:50;6.20;99.90
37938;DHT22;23763;48.130;11.602;2024-02-21T02:22:21;6.20;99.90
37938;DHT22;23763;48.130;11.602;2024-02-21T02:24:47;6.20;99.90
37938;DHT22;23763;48.130;11.602;2024-02-21T02:27:13;6.30;99.90
37938;DHT22;23763;48.130;11.602;2024-02-21T02:29:39;6.30;99.90
37938;DHT22;23763;48.130;11.602;2024-02-21T02:32:05;6.40;99.90
37938;DHT22;23763;48.130;11.602;2024-02-21T02:34:30;6.40;99.90
37938;DHT22;23763;48.130;11.602;2024-02-21T02:36:56;6.40;99.90
37938;DHT22;23763;48.130;11.602;2024-02-21T02:39:21;6.30;99.90
37938;DHT22;23763;48.130;11.602;2024-02-21T02:41:47;6.40;99.90
37938;DHT22;23763;48.130;11.602;2024-02-21T02:44:13;6.30;99.90
37938;DHT22;23763;48.130;11.602;2024-02-21T02:46:40;6.20;99.90
37938;DHT22;23763;48.130;11.602;2024-02-21T02:49:06;6.20;99.90
37938;DHT22;23763;48.130;11.602;2024-02-21T02:51:32;6.30;99.90
37938;DHT22;23763;48.130;11.602;2024-02-21T02:53:58;6.30;99.90
37938;DHT22;23763;48.130;11.602;2024-02-21T02:56:23;6.50;99.90
37938;DHT22;23763;48.130;11.602;2024-02-21T02:58:49;6.30;99.90
37938;DHT22;23763;48.130;11.602;2024-02-21T03:01:14;6.20;99.90
37938;DHT22;23763;48.130;11.602;2024-02-21T03:03:40;6.40;99.90
37938;DHT22;23763;48.130;11.602;2024-02-21T03:06:06;6.40;99.90
37938;DHT22;23763;48.130;11.602;2024-02-21T03:08:33;6.30;99.90
37938;DHT22;23763;48.130;11.602;2024-02-21T03:10:59;6.40;99.90
37938;DHT22;23763;48.130;11.602;2024-02-21T03:13:26;6.30;99.90
37938;DHT22;23763;48.130;11.602;2024-02-21T03:15:52;6.30;99.90
37938;DHT22;23763;48.130;11.602;2024-02-21T03:18:17;6.30;99.90
37938;DHT22;23763;48.130;11.602;2024-02-21T03:20:43;6.30;99.90
37938;DHT22;23763;48.130;11.602;2024-02-21T03:23:09;6.30;99.90
37938;DHT22;23763;48.130;11.602;2024-02-21T03:25:34;6.20;99.90
37938;DHT22;23763;48.130;11.602;2024-02-21T03:28:00;6.30;99.90
37938;DHT22;23763;48.130;11.602;2024-02-21T03:30:27;6.40;99.90
37938;DHT22;23763;48.130;11.602;2024-02-21T03:32:52;6.40;99.90
37938;DHT22;23763;48.130;11.602;2024-02-21T03:35:18;6.40;99.90
37938;DHT22;23763;48.130;11.602;2024-02-21T03:37:45;6.30;99.90
37938;DHT22;23763;48.130;11.602;2024-02-21T03:40:11;6.30;99.90
37938;DHT22;23763;48.130;11.602;2024-02-21T03:42:37;6.40;99.90
37938;DHT22;23763;48.130;11.602;2024-02-21T03:45:04;6.30;99.90
37938;DHT22;23763;48.130;11.602;2024-02-21T03:47:29;6.30;99.90
37938;DHT22;23763;48.130;11.602;2024-02-21T03:49:55;6.40;99.90
37938;DHT22;23763;48.130;11.602;2024-02-21T03:52:21;6.30;99.90
37938;DHT22;23763;48.130;11.602;2024-02-21T03:54:46;6.40;99.90
37938;DHT22;23763;48.130;11.602;2024-02-21T03:57:12;6.40;99.90
37938;DHT22;23763;48.130;11.602;2024-02-21T03:59:37;6.40;99.90
37938;DHT22;23763;48.130;11.602;2024-02-21T04:02:05;6.50;99.90
37938;DHT22;23763;48.130;11.602;2024-02-21T04:04:34;6.50;99.90
37938;DHT22;23763;48.130;11.602;2024-02-21T04:07:00;6.60;99.90
37938;DHT22;23763;48.130;11.602;2024-02-21T04:09:27;6.50;99.90
37938;DHT22;23763;48.130;11.602;2024-02-21T04:11:52;6.70;99.90
37938;DHT22;23763;48.130;11.602;2024-02-21T04:14:18;6.50;99.90
37938;DHT22;23763;48.130;11.602;2024-02-21T04:16:47;6.50;99.90
37938;DHT22;23763;48.130;11.602;2024-02-21T04:19:12;6.50;99.90
37938;DHT22;23763;48.130;11.602;2024-02-21T04:21:38;6.50;99.90
37938;DHT22;23763;48.130;11.602;2024-02-21T04:24:03;6.60;99.90
37938;DHT22;23763;48.130;11.602;2024-02-21T04:26:31;6.50;99.90
37938;DHT22;23763;48.130;11.602;2024-02-21T04:28:56;6.50;99.90
37938;DHT22;23763;48.130;11.602;2024-02-21T04:31:22;6.50;99.90
37938;DHT22;23763;48.130;11.602;2024-02-21T04:33:47;6.40;99.90
37938;DHT22;23763;48.130;11.602;2024-02-21T04:36:13;6.40;99.90
37938;DHT22;23763;48.130;11.602;2024-02-21T04:38:39;6.30;99.90
37938;DHT22;23763;48.130;11.602;2024-02-21T04:41:06;6.30;99.90
37938;DHT22;23763;48.130;11.602;2024-02-21T04:43:31;6.30;99.90
37938;DHT22;23763;48.130;11.602;2024-02-21T04:45:57;6.30;99.90
37938;DHT22;23763;48.130;11.602;2024-02-21T04:48:22;6.10;99.90
37938;DHT22;23763;48.130;11.602;2024-02-21T04:50:48;6.10;99.90
37938;DHT22;23763;48.130;11.602;2024-02-21T04:53:14;6.10;99.90
37938;DHT22;23763;48.130;11.602;2024-02-21T04:55:39;6.00;99.90
37938;DHT22;23763;48.130;11.602;2024-02-21T04:58:05;5.90;99.90
37938;DHT22;23763;48.130;11.602;2024-02-21T05:00:31;5.80;99.90
37938;DHT22;23763;48.130;11.602;2024-02-21T05:02:56;5.80;99.90
37938;DHT22;23763;48.130;11.602;2024-02-21T05:05:22;5.80;99.90
37938;DHT22;23763;48.130;11.602;2024-02-21T05:07:48;5.70;99.90
37938;DHT22;23763;48.130;11.602;2024-02-21T05:10:13;5.60;99.90
37938;DHT22;23763;48.130;11.602;2024-02-21T05:12:39;5.60;99.90
37938;DHT22;23763;48.130;11.602;2024-02-21T05:15:05;5.50;99.90
37938;DHT22;23763;48.130;11.602;2024-02-21T05:17:31;5.50;99.90
37938;DHT22;23763;48.130;11.602;2024-02-21T05:19:56;5.50;99.90
37938;DHT22;23763;48.130;11.602;2024-02-21T05:22:22;5.50;99.90
37938;DHT22;23763;48.130;11.602;2024-02-21T05:24:48;5.50;99.90
37938;DHT22;23763;48.130;11.602;2024-02-21T05:27:13;5.60;99.90
37938;DHT22;23763;48.130;11.602;2024-02-21T05:29:39;5.50;99.90
37938;DHT22;23763;48.130;11.602;2024-02-21T05:32:05;5.50;99.90
37938;DHT22;23763;48.130;11.602;2024-02-21T05:34:30;5.40;99.90
37938;DHT22;23763;48.130;11.602;2024-02-21T05:36:56;5.40;99.90
37938;DHT22;23763;48.130;11.602;2024-02-21T05:39:23;5.40;99.90
37938;DHT22;23763;48.130;11.602;2024-02-21T05:41:49;5.50;99.90
37938;DHT22;23763;48.130;11.602;2024-02-21T05:44:16;5.50;99.90
37938;DHT22;23763;48.130;11.602;2024-02-21T05:46:42;5.40;99.90
37938;DHT22;23763;48.130;11.602;2024-02-21T05:49:07;5.40;99.90
37938;DHT22;23763;48.130;11.602;2024-02-21T05:51:34;5.40;99.90
37938;DHT22;23763;48.130;11.602;2024-02-21T05:54:00;5.40;99.90
37938;DHT22;23763;48.130;11.602;2024-02-21T05:56:25;5.50;99.90
37938;DHT22;23763;48.130;11.602;2024-02-21T05:58:51;5.40;99.90
37938;DHT22;23763;48.130;11.602;2024-02-21T06:01:17;5.30;99.90
37938;DHT22;23763;48.130;11.602;2024-02-21T06:03:43;5.30;99.90
37938;DHT22;23763;48.130;11.602;2024-02-21T06:06:09;5.20;99.90
37938;DHT22;23763;48.130;11.602;2024-02-21T06:08:35;5.20;99.90
37938;DHT22;23763;48.130;11.602;2024-02-21T06:11:00;5.20;99.90
37938;DHT22;23763;48.130;11.602;2024-02-21T06:13:26;5.20;99.90
37938;DHT22;23763;48.130;11.602;2024-02-21T06:15:53;5.30;99.90
37938;DHT22;23763;48.130;11.602;2024-02-21T06:18:19;5.20;99.90
37938;DHT22;23763;48.130;11.602;2024-02-21T06:20:45;5.20;99.90
37938;DHT22;23763;48.130;11.602;2024-02-21T06:23:12;5.10;99.90
37938;DHT22;23763;48.130;11.602;2024-02-21T06:25:38;5.20;99.90
37938;DHT22;23763;48.130;11.602;2024-02-21T06:28:04;5.30;99.90
37938;DHT22;23763;48.130;11.602;2024-02-21T06:30:30;5.40;99.90
37938;DHT22;23763;48.130;11.602;2024-02-21T06:32:56;5.40;99.90
37938;DHT22;23763;48.130;11.602;2024-02-21T06:35:22;5.50;99.90
37938;DHT22;23763;48.130;11.602;2024-02-21T06:37:51;5.60;99.90
37938;DHT22;23763;48.130;11.602;2024-02-21T06:40:19;5.60;99.90
37938;DHT22;23763;48.130;11.602;2024-02-21T06:42:45;5.60;99.90
37938;DHT22;23763;48.130;11.602;2024-02-21T06:45:10;5.60;99.90
37938;DHT22;23763;48.130;11.602;2024-02-21T06:47:37;5.70;99.90
37938;DHT22;23763;48.130;11.602;2024-02-21T06:50:03;5.80;99.90
37938;DHT22;23763;48.130;11.602;2024-02-21T06:52:28;5.80;99.90
37938;DHT22;23763;48.130;11.602;2024-02-21T06:54:54;5.90;99.90
37938;DHT22;23763;48.130;11.602;2024-02-21T06:57:19;5.90;99.90
37938;DHT22;23763;48.130;11.602;2024-02-21T06:59:45;5.90;99.90
37938;DHT22;23763;48.130;11.602;2024-02-21T07:02:11;5.90;99.90
37938;DHT22;23763;48.130;11.602;2024-02-21T07:04:36;6.00;99.90
37938;DHT22;23763;48.130;11.602;2024-02-21T07:07:02;6.00;99.90
37938;DHT22;23763;48.130;11.602;2024-02-21T07:09:28;6.00;99.90
37938;DHT22;23763;48.130;11.602;2024-02-21T07:11:59;6.00;99.90
37938;DHT22;23763;48.130;11.602;2024-02-21T07:14:25;6.30;99.90
37938;DHT22;23763;48.130;11.602;2024-02-21T07:16:51;6.30;99.90
37938;DHT22;23763;48.130;11.602;2024-02-21T07:19:17;6.40;99.90
37938;DHT22;23763;48.130;11.602;2024-02-21T07:21:43;6.70;99.90
37938;DHT22;23763;48.130;11.602;2024-02-21T07:24:09;6.80;99.90
37938;DHT22;23763;48.130;11.602;2024-02-21T07:26:34;6.80;99.90
37938;DHT22;23763;48.130;11.602;2024-02-21T07:29:00;6.90;99.90
37938;DHT22;23763;48.130;11.602;2024-02-21T07:31:26;6.90;99.90
37938;DHT22;23763;48.130;11.602;2024-02-21T07:33:51;6.90;99.90
37938;DHT22;23763;48.130;11.602;2024-02-21T07:36:29;7.10;99.90
37938;DHT22;23763;48.130;11.602;2024-02-21T07:38:55;7.10;99.90
37938;DHT22;23763;48.130;11.602;2024-02-21T07:41:21;7.10;99.90
37938;DHT22;23763;48.130;11.602;2024-02-21T07:43:47;7.00;99.90
37938;DHT22;23763;48.130;11.602;2024-02-21T07:46:14;6.80;99.90
37938;DHT22;23763;48.130;11.602;2024-02-21T07:48:39;6.70;99.90
37938;DHT22;23763;48.130;11.602;2024-02-21T07:51:05;6.60;99.90
37938;DHT22;23763;48.130;11.602;2024-02-21T07:53:31;6.50;99.90
37938;DHT22;23763;48.130;11.602;2024-02-21T07:55:56;6.40;99.90
37938;DHT22;23763;48.130;11.602;2024-02-21T07:58:22;6.40;99.90
37938;DHT22;23763;48.130;11.602;2024-02-21T08:00:48;6.40;99.90
37938;DHT22;23763;48.130;11.602;2024-02-21T08:03:14;6.40;99.90
37938;DHT22;23763;48.130;11.602;2024-02-21T08:05:41;6.50;99.90
37938;DHT22;23763;48.130;11.602;2024-02-21T08:08:06;6.60;99.90
37938;DHT22;23763;48.130;11.602;2024-02-21T08:10:33;6.80;99.90
37938;DHT22;23763;48.130;11.602;2024-02-21T08:12:59;6.70;99.90
37938;DHT22;23763;48.130;11.602;2024-02-21T08:15:25;6.80;99.90
37938;DHT22;23763;48.130;11.602;2024-02-21T08:17:57;6.80;99.90
37938;DHT22;23763;48.130;11.602;2024-02-21T08:20:26;6.90;99.90
37938;DHT22;23763;48.130;11.602;2024-02-21T08:22:52;6.90;99.90
37938;DHT22;23763;48.130;11.602;2024-02-21T08:25:18;6.90;99.90
37938;DHT22;23763;48.130;11.602;2024-02-21T08:27:43;6.90;99.90
37938;DHT22;23763;48.130;11.602;2024-02-21T08:30:11;6.90;99.90
37938;DHT22;23763;48.130;11.602;2024-02-21T08:32:37;6.90;99.90
37938;DHT22;23763;48.130;11.602;2024-02-21T08:35:03;7.00;99.90
37938;DHT22;23763;48.130;11.602;2024-02-21T08:37:28;7.10;99.90
37938;DHT22;23763;48.130;11.602;2024-02-21T08:39:54;7.20;99.90
37938;DHT22;23763;48.130;11.602;2024-02-21T08:42:20;7.30;99.90
37938;DHT22;23763;48.130;11.602;2024-02-21T08:44:46;7.50;99.90
37938;DHT22;23763;48.130;11.602;2024-02-21T08:47:11;7.60;99.90
37938;DHT22;23763;48.130;11.602;2024-02-21T08:49:38;7.70;99.90
37938;DHT22;23763;48.130;11.602;2024-02-21T08:52:04;7.90;99.90
37938;DHT22;23763;48.130;11.602;2024-02-21T08:54:31;8.00;99.90
37938;DHT22;23763;48.130;11.602;2024-02-21T08:56:56;8.10;99.90
37938;DHT22;23763;48.130;11.602;2024-02-21T08:59:22;8.10;99.90
37938;DHT22;23763;48.130;11.602;2024-02-21T09:01:48;8.10;99.90
37938;DHT22;23763;48.130;11.602;2024-02-21T09:04:13;8.10;99.90
37938;DHT22;23763;48.130;11.602;2024-02-21T09:06:39;8.20;99.90
37938;DHT22;23763;48.130;11.602;2024-02-21T09:09:08;8.30;99.90
37938;DHT22;23763;48.130;11.602;2024-02-21T09:11:35;8.40;99.90
37938;DHT22;23763;48.130;11.602;2024-02-21T09:14:01;8.40;99.90
37938;DHT22;23763;48.130;11.602;2024-02-21T09:16:32;8.50;99.90
37938;DHT22;23763;48.130;11.602;2024-02-21T09:18:58;8.50;99.90
37938;DHT22;23763;48.130;11.602;2024-02-21T09:21:23;8.60;99.90
37938;DHT22;23763;48.130;11.602;2024-02-21T09:23:49;8.70;99.90
37938;DHT22;23763;48.130;11.602;2024-02-21T09:26:14;8.70;99.90
37938;DHT22;23763;48.130;11.602;2024-02-21T09:28:45;8.80;99.90
37938;DHT22;23763;48.130;11.602;2024-02-21T09:31:12;8.90;99.90
37938;DHT22;23763;48.130;11.602;2024-02-21T09:33:38;8.90;99.90
37938;DHT22;23763;48.130;11.602;2024-02-21T09:36:04;9.00;99.90
37938;DHT22;23763;48.130;11.602;2024-02-21T09:38:33;9.10;99.90
37938;DHT22;23763;48.130;11.602;2024-02-21T09:41:25;9.10;99.90
37938;DHT22;23763;48.130;11.602;2024-02-21T09:43:50;9.10;99.90
37938;DHT22;23763;48.130;11.602;2024-02-21T09:46:19;9.10;99.90
37938;DHT22;23763;48.130;11.602;2024-02-21T09:51:35;9.20;99.90
37938;DHT22;23763;48.130;11.602;2024-02-21T09:54:03;9.30;99.90
37938;DHT22;23763;48.130;11.602;2024-02-21T09:56:29;9.40;99.90
37938;DHT22;23763;48.130;11.602;2024-02-21T09:58:55;9.40;99.90
37938;DHT22;23763;48.130;11.602;2024-02-21T10:01:21;9.50;99.90
37938;DHT22;23763;48.130;11.602;2024-02-21T10:03:47;9.60;99.90
37938;DHT22;23763;48.130;11.602;2024-02-21T10:06:13;9.60;99.90
37938;DHT22;23763;48.130;11.602;2024-02-21T10:08:39;9.70;99.90
37938;DHT22;23763;48.130;11.602;2024-02-21T10:11:04;9.80;99.90
37938;DHT22;23763;48.130;11.602;2024-02-21T10:13:30;9.80;99.90
37938;DHT22;23763;48.130;11.602;2024-02-21T10:16:05;9.90;99.90
37938;DHT22;23763;48.130;11.602;2024-02-21T10:18:32;10.00;99.90
37938;DHT22;23763;48.130;11.602;2024-02-21T10:21:08;10.10;99.90
37938;DHT22;23763;48.130;11.602;2024-02-21T10:23:44;10.10;99.90
37938;DHT22;23763;48.130;11.602;2024-02-21T10:26:10;10.20;99.90
37938;DHT22;23763;48.130;11.602;2024-02-21T10:28:40;10.20;99.90
37938;DHT22;23763;48.130;11.602;2024-02-21T10:31:11;10.30;99.90
37938;DHT22;23763;48.130;11.602;2024-02-21T10:33:38;10.40;99.90
37938;DHT22;23763;48.130;11.602;2024-02-21T10:36:10;10.50;99.90
37938;DHT22;23763;48.130;11.602;2024-02-21T10:38:37;10.70;99.90
37938;DHT22;23763;48.130;11.602;2024-02-21T10:41:07;10.70;99.90
37938;DHT22;23763;48.130;11.602;2024-02-21T10:43:39;10.70;99.90
37938;DHT22;23763;48.130;11.602;2024-02-21T10:46:07;10.80;99.90
37938;DHT22;23763;48.130;11.602;2024-02-21T10:48:42;10.90;99.90
37938;DHT22;23763;48.130;11.602;2024-02-21T10:51:16;10.90;99.90
37938;DHT22;23763;48.130;11.602;2024-02-21T10:58:48;11.20;99.90
37938;DHT22;23763;48.130;11.602;2024-02-21T11:01:14;11.30;99.90
37938;DHT22;23763;48.130;11.602;2024-02-21T11:03:45;11.40;99.90
37938;DHT22;23763;48.130;11.602;2024-02-21T11:06:12;11.50;99.90
37938;DHT22;23763;48.130;11.602;2024-02-21T11:08:39;11.60;99.90
37938;DHT22;23763;48.130;11.602;2024-02-21T11:11:05;11.70;99.90
37938;DHT22;23763;48.130;11.602;2024-02-21T11:13:37;11.90;99.90
37938;DHT22;23763;48.130;11.602;2024-02-21T11:16:10;12.00;99.90
37938;DHT22;23763;48.130;11.602;2024-02-21T11:18:39;12.10;99.90
37938;DHT22;23763;48.130;11.602;2024-02-21T11:21:06;12.10;99.90
37938;DHT22;23763;48.130;11.602;2024-02-21T11:23:32;12.20;99.90
37938;DHT22;23763;48.130;11.602;2024-02-21T11:26:10;12.30;99.90
37938;DHT22;23763;48.130;11.602;2024-02-21T11:28:44;12.50;99.90
37938;DHT22;23763;48.130;11.602;2024-02-21T11:31:13;12.60;99.90
37938;DHT22;23763;48.130;11.602;2024-02-21T11:33:43;12.70;99.90
37938;DHT22;23763;48.130;11.602;2024-02-21T11:36:26;12.70;99.90
37938;DHT22;23763;48.130;11.602;2024-02-21T11:38:52;12.60;99.90
37938;DHT22;23763;48.130;11.602;2024-02-21T11:41:21;12.80;99.90
37938;DHT22;23763;48.130;11.602;2024-02-21T11:43:49;12.80;99.90
37938;DHT22;23763;48.130;11.602;2024-02-21T11:46:16;12.80;99.90
37938;DHT22;23763;48.130;11.602;2024-02-21T11:48:42;12.90;99.90
37938;DHT22;23763;48.130;11.602;2024-02-21T11:51:10;13.00;99.90
37938;DHT22;23763;48.130;11.602;2024-02-21T11:53:36;13.10;99.90
37938;DHT22;23763;48.130;11.602;2024-02-21T11:56:02;13.20;99.90
37938;DHT22;23763;48.130;11.602;2024-02-21T11:58:28;13.30;99.90
37938;DHT22;23763;48.130;11.602;2024-02-21T12:00:56;13.30;99.90
37938;DHT22;23763;48.130;11.602;2024-02-21T12:03:21;13.20;99.90
37938;DHT22;23763;48.130;11.602;2024-02-21T12:05:47;13.20;99.90
37938;DHT22;23763;48.130;11.602;2024-02-21T12:08:13;13.20;99.90
37938;DHT22;23763;48.130;11.602;2024-02-21T12:10:38;13.30;99.90
37938;DHT22;23763;48.130;11.602;2024-02-21T12:13:17;13.40;99.90
37938;DHT22;23763;48.130;11.602;2024-02-21T12:15:47;13.40;99.90
37938;DHT22;23763;48.130;11.602;2024-02-21T12:18:14;13.50;99.90
37938;DHT22;23763;48.130;11.602;2024-02-21T12:20:40;13.50;99.90
37938;DHT22;23763;48.130;11.602;2024-02-21T12:23:10;13.60;99.90
37938;DHT22;23763;48.130;11.602;2024-02-21T12:25:35;13.70;99.90
37938;DHT22;23763;48.130;11.602;2024-02-21T12:28:01;13.70;99.90
37938;DHT22;23763;48.130;11.602;2024-02-21T12:30:27;13.80;99.90
37938;DHT22;23763;48.130;11.602;2024-02-21T12:32:53;13.80;99.90
37938;DHT22;23763;48.130;11.602;2024-02-21T12:35:19;13.80;99.90
37938;DHT22;23763;48.130;11.602;2024-02-21T12:37:44;13.80;99.90
37938;DHT22;23763;48.130;11.602;2024-02-21T12:40:10;13.80;99.90
37938;DHT22;23763;48.130;11.602;2024-02-21T12:42:36;13.70;99.90
37938;DHT22;23763;48.130;11.602;2024-02-21T12:45:02;13.70;99.90
37938;DHT22;23763;48.130;11.602;2024-02-21T12:47:28;13.80;99.90
37938;DHT22;23763;48.130;11.602;2024-02-21T12:49:54;13.80;99.90
37938;DHT22;23763;48.130;11.602;2024-02-21T12:52:20;13.80;99.90
37938;DHT22;23763;48.130;11.602;2024-02-21T12:54:45;13.80;99.90
37938;DHT22;23763;48.130;11.602;2024-02-21T12:57:11;13.90;99.90
37938;DHT22;23763;48.130;11.602;2024-02-21T12:59:37;14.00;99.90
37938;DHT22;23763;48.130;11.602;2024-02-21T13:02:02;13.90;99.90
37938;DHT22;23763;48.130;11.602;2024-02-21T13:04:28;13.90;99.90
37938;DHT22;23763;48.130;11.602;2024-02-21T13:06:54;14.00;99.90
37938;DHT22;23763;48.130;11.602;2024-02-21T13:09:21;14.10;99.90
37938;DHT22;23763;48.130;11.602;2024-02-21T13:11:47;14.00;99.90
37938;DHT22;23763;48.130;11.602;2024-02-21T13:14:12;13.90;99.90
37938;DHT22;23763;48.130;11.602;2024-02-21T13:16:39;13.80;99.90
37938;DHT22;23763;48.130;11.602;2024-02-21T13:19:08;13.80;99.90
37938;DHT22;23763;48.130;11.602;2024-02-21T13:21:34;13.90;99.90
37938;DHT22;23763;48.130;11.602;2024-02-21T13:24:00;13.90;99.90
37938;DHT22;23763;48.130;11.602;2024-02-21T13:26:26;13.90;99.90
37938;DHT22;23763;48.130;11.602;2024-02-21T13:28:53;13.90;99.90
37938;DHT22;23763;48.130;11.602;2024-02-21T13:31:18;13.90;99.90
37938;DHT22;23763;48.130;11.602;2024-02-21T13:33:44;14.00;99.90
37938;DHT22;23763;48.130;11.602;2024-02-21T13:36:10;13.90;99.90
37938;DHT22;23763;48.130;11.602;2024-02-21T13:38:36;13.90;99.90
37938;DHT22;23763;48.130;11.602;2024-02-21T13:41:02;13.90;99.90
37938;DHT22;23763;48.130;11.602;2024-02-21T13:43:27;13.90;99.90
37938;DHT22;23763;48.130;11.602;2024-02-21T13:46:00;13.90;99.90
37938;DHT22;23763;48.130;11.602;2024-02-21T13:48:28;13.90;99.90
37938;DHT22;23763;48.130;11.602;2024-02-21T13:50:55;13.90;99.90
37938;DHT22;23763;48.130;11.602;2024-02-21T13:53:21;13.90;99.90
37938;DHT22;23763;48.130;11.602;2024-02-21T13:55:48;13.90;99.90
37938;DHT22;23763;48.130;11.602;2024-02-21T13:58:14;14.00;99.90
37938;DHT22;23763;48.130;11.602;2024-02-21T14:00:40;14.00;99.90
37938;DHT22;23763;48.130;11.602;2024-02-21T14:03:06;14.00;99.90
37938;DHT22;23763;48.130;11.602;2024-02-21T14:05:31;13.90;99.90
37938;DHT22;23763;48.130;11.602;2024-02-21T14:07:57;14.00;99.90
37938;DHT22;23763;48.130;11.602;2024-02-21T14:10:23;14.00;99.90
37938;DHT22;23763;48.130;11.602;2024-02-21T14:12:51;14.00;99.90
37938;DHT22;23763;48.130;11.602;2024-02-21T14:15:17;14.00;99.90
37938;DHT22;23763;48.130;11.602;2024-02-21T14:17:43;14.00;99.90
37938;DHT22;23763;48.130;11.602;2024-02-21T14:20:09;14.10;99.90
37938;DHT22;23763;48.130;11.602;2024-02-21T14:22:35;14.10;99.90
37938;DHT22;23763;48.130;11.602;2024-02-21T14:25:03;14.00;99.90
37938;DHT22;23763;48.130;11.602;2024-02-21T14:27:31;14.00;99.90
37938;DHT22;23763;48.130;11.602;2024-02-21T14:29:57;13.90;99.90
37938;DHT22;23763;48.130;11.602;2024-02-21T14:32:22;14.00;99.90
37938;DHT22;23763;48.130;11.602;2024-02-21T14:34:48;14.00;99.90
37938;DHT22;23763;48.130;11.602;2024-02-21T14:37:14;14.00;99.90
37938;DHT22;23763;48.130;11.602;2024-02-21T14:39:40;14.00;99.90
37938;DHT22;23763;48.130;11.602;2024-02-21T14:42:06;13.90;99.90
37938;DHT22;23763;48.130;11.602;2024-02-21T14:44:32;13.80;99.90
37938;DHT22;23763;48.130;11.602;2024-02-21T14:46:58;13.80;99.90
37938;DHT22;23763;48.130;11.602;2024-02-21T14:49:24;13.70;99.90
37938;DHT22;23763;48.130;11.602;2024-02-21T14:51:50;13.60;99.90
37938;DHT22;23763;48.130;11.602;2024-02-21T14:54:16;13.60;99.90
37938;DHT22;23763;48.130;11.602;2024-02-21T14:56:42;13.60;99.90
37938;DHT22;23763;48.130;11.602;2024-02-21T14:59:08;13.60;99.90
37938;DHT22;23763;48.130;11.602;2024-02-21T15:01:37;13.50;99.90
37938;DHT22;23763;48.130;11.602;2024-02-21T15:04:06;13.60;99.90
37938;DHT22;23763;48.130;11.602;2024-02-21T15:06:32;13.70;99.90
37938;DHT22;23763;48.130;11.602;2024-02-21T15:08:58;13.70;99.90
37938;DHT22;23763;48.130;11.602;2024-02-21T15:11:24;13.60;99.90
37938;DHT22;23763;48.130;11.602;2024-02-21T15:13:50;13.60;99.90
37938;DHT22;23763;48.130;11.602;2024-02-21T15:16:15;13.70;99.90
37938;DHT22;23763;48.130;11.602;2024-02-21T15:18:44;13.60;99.90
37938;DHT22;23763;48.130;11.602;2024-02-21T15:21:09;13.60;99.90
37938;DHT22;23763;48.130;11.602;2024-02-21T15:23:39;13.60;99.90
37938;DHT22;23763;48.130;11.602;2024-02-21T15:26:05;13.50;99.90
37938;DHT22;23763;48.130;11.602;2024-02-21T15:28:31;13.50;99.90